AirNav   Free Bose QuietComfort 20
 
 229 users online  

3D1 Crivitz Municipal Airport
Crivitz, Wisconsin, USA

GOING TO CRIVITZ?


FAA INFORMATION EFFECTIVE 05 DECEMBER 2019

Location

FAA Identifier: 3D1
Lat/Long: 45-12-52.7071N 088-04-23.8734W
45-12.878452N 088-04.397890W
45.2146409,-88.0732982
(estimated)
Elevation: 734.8 ft. / 224 m
Variation: 02W (1985)
From city: 3 miles SW of CRIVITZ, WI
Time zone: UTC -6 (UTC -5 during Daylight Saving Time)
Zip code: 54114

Airport Operations

Airport use: Open to the public
Activation date: 04/1948
Control tower: no
ARTCC: MINNEAPOLIS CENTER
FSS: GREEN BAY FLIGHT SERVICE STATION
NOTAMs facility: GRB (NOTAM-D service available)
Attendance: UNATNDD
Wind indicator: yes
Segmented circle: yes
Lights: ACTVT LIRL RWY 18/36 - 123.0.
Beacon: white-green (lighted land airport)
ROTG BCN - 5 CLICKS ON 123.0.

Airport Communications

CTAF/UNICOM: 122.8
WX AWOS-3PT at MNM (19 nm E): 109.6 (906-863-8801)

Nearby radio navigation aids

VOR radial/distance  VOR name  Freq  Var
MNMr277/18.1MENOMINEE VOR/DME109.6000E
IMTr179/36.1IRON MOUNTAIN VOR/DME111.2002W
GRBr006/39.9GREEN BAY VORTAC115.5001E

Airport Services

Parking: tiedowns
Airframe service: NONE
Powerplant service: NONE
Bottled oxygen: NONE
Bulk oxygen: NONE

Runway Information

Runway 18/36

Dimensions: 2164 x 60 ft. / 660 x 18 m
Surface: asphalt, in fair condition
Weight bearing capacity: 
Single wheel: 12.0
Runway edge lights: low intensity
Runway edge markings: RY 18/36 MARKINGS BADLY FADED
Operational restrictions: TO CONFIRM SNOW REMOVAL CTC AMGR.
RUNWAY 18  RUNWAY 36
Latitude: 45-13.036500N45-12.680500N
Longitude: 088-04.360667W088-04.373500W
Elevation: 729.8 ft.730.2 ft.
Traffic pattern: leftleft
Displaced threshold: 115 ft.101 ft.
Markings: basic, in poor conditionbasic, in poor condition
Runway end identifier lights: nono
Touchdown point: yes, no lightsyes, no lights
Obstructions: 16 ft. road, 200 ft. from runway
+3 FT BERM AT THR; RD 5 FT L & R OF CNTRLN.
16 ft. road, 210 ft. from runway
+3 FT BERM AT THR; ROAD 5 FT L & R OF CNTRLN.

Runway 9/27

Dimensions: 2545 x 80 ft. / 776 x 24 m
Surface: turf, in fair condition
Runway edge markings: RWY 09 /27 MKD WITH YELLOW CONES.
Operational restrictions: NOT PLOWED WINTER MONTHS.
RUNWAY 9  RUNWAY 27
Latitude: 45-12.901333N45-12.889500N
Longitude: 088-04.720333W088-04.127833W
Elevation: 734.8 ft.728.4 ft.
Traffic pattern: leftleft
Runway heading: 094 magnetic, 092 true274 magnetic, 272 true
Displaced threshold: 595 ft.138 ft.
Runway end identifier lights: nono
Touchdown point: yes, no lightsyes, no lights
Obstructions: 25 ft. pline, marked, 20 ft. from runway, 1:1 slope to clear
APCH RATIO 13:1 TO DSPLCD THLD.
13 ft. trees, 65 ft. from runway, 30 ft. right of centerline, 5:1 slope to clear
APCH RATIO 15:1 TO DSPLCD THLD.

Airport Ownership and Management from official FAA records

Ownership: Publicly-owned
Owner: TOWN OF STEPHENSON
W9484 COUNTY ROAD X
CRIVITZ, WI 54114
Phone 715-854-2874
Manager: JIM STRADAL
W9484 COUNTY ROAD X
CRIVITZ, WI 54114
Phone (715) 927-2793

Airport Operational Statistics

Aircraft based on the field: 5
Single engine airplanes: 3
Ultralights: 2
    
Aircraft operations: avg 50/month *
83% local general aviation
17% transient general aviation
* for 12-month period ending 27 September 2017

Additional Remarks

DEER ON & INVOF ARPT.
FOR CD CTC MINNEAPOLIS ARTCC AT 651-463-5588.

Instrument Procedures

There are no published instrument procedures at 3D1.

Some nearby airports with instrument procedures:

KMNM - Menominee Regional Airport (19 nm E)
KOCQ - Oconto-J Douglas Bake Municipal Airport (22 nm S)
KEZS - Shawano Municipal Airport (33 nm SW)
KSUE - Door County Cherryland Airport (35 nm SE)
KIMT - Ford Airport (36 nm N)
 
Loc | Ops | Rwys | IFR | FBO | Links
Com | Nav | Svcs | Stats | Notes
Area around 3D1 (Crivitz Municipal Airport)
 
Road maps at: MapQuest Bing Google
 
Aerial photo
WARNING: Photo may not be current or correct
Aerial photo of 3D1 (Crivitz Municipal Airport)
Taken mid October 2005

Do you have a better or more recent aerial photo of Crivitz Municipal Airport that you would like to share? If so, please send us your photo.

 
Sectional chart

 
Airport distance calculator
Flying to Crivitz Municipal Airport? Find the distance to fly.

From to 3D1

Sunrise and sunset
Times for 14-Dec-2019
 Local
(UTC-6)
 Zulu
(UTC)
Morning civil twilight06:5112:51
Sunrise07:2513:25
Sunset16:0922:09
Evening civil twilight16:4322:43

Current date and time
Zulu (UTC)  14-Dec-2019 09:03:36
Local (UTC-6)  14-Dec-2019 03:03:36
 
METAR
KMNM 
20nm E 
140856Z AUTO 00000KT 6SM BR OVC023 M04/M05 A2975 RMK AO2 SLP083 T10391050 56011 FZRANO $
KOCQ 
22nm S 
140855Z AUTO 00000KT 7SM OVC019 M04/M06 A2975 RMK AO1 T10431056
KEZS 
33nm SW 
715-526-2967
140855Z AUTO 00000KT 2 1/2SM BR OVC007 M03/M04 A2975 RMK AO2 T10331043
KSUE 
35nm SE 
140856Z AUTO 00000KT 5SM BR OVC023 M04/M05 A2974 RMK AO2 SLP081 T10391050 56014 FZRANO $
KIMT 
36nm N 
140854Z AUTO 00000KT 6SM BR OVC038 M04/M07 A2970 RMK AO2 SLP074 T10441067 56010
K3D2 
38nm E 
140855Z AUTO 00000KT 7SM OVC029 M03/M04 A2973 RMK AO2 T10301040
TAF
KGRB 
44nm S 
140520Z 1406/1506 00000KT 5SM BR SCT012 OVC028 FM140800 VRB03KT 3SM BR OVC010 FM141000 32003KT 5SM BR OVC006 FM141300 30007KT 6SM -SHSN OVC019 FM142200 30007KT P6SM -SHSN BKN035 FM150300 30007KT P6SM BKN028
NOTAMs
Click for the latest NOTAMs
NOTAMs are issued by the DoD/FAA and will open in a separate window not controlled by AirNav.

 

 
 

Would you like to see your business listed on this page?

 If your business provides an interesting product or service to pilots, flight crews, aircraft, or users of the Crivitz Municipal Airport, you should consider listing it here.  To start the listing process, click on the button below
 
Add a business
 

Other Pages about Crivitz Municipal Airport

Page from the Wisconsin airport directory (PDF)
 
Update a link
 
Copyright © AirNav, LLC. All rights reserved. Privacy Policy  Contact